CYNR

METAR CYNR 042000Z AUTO 05004KT 020V090 9SM FEW032 OVC045 12/06 A3015 RMK AO2 SLP217
METAR
LOCATION
CYNR
DATE - TIME
042000Z
WIND
050 TRUE @ 4 KNOTS VARYING 020 TO 090
VISIBILITY
9SM
RUNWAY VISUAL RANGE
NOT REPORTED
WEATHER
CLOUDINESS
FEW032 OVC045
TEMP / DEWPOINT
12 ºC / 6 ºC
ALTIMETER
30.15 in. Hg
RECENT WEATHER
NOT REPORTED
WIND SHEAR
NOT REPORTED
REMARKS
RMK AO2 SLP217
SEA LEVEL PRESSURE: hPa

CYNR

METAR CYNR 041900Z AUTO 35008KT 9SM BKN030 OVC039 12/06 A3014 RMK AO2 SLP214
METAR
LOCATION
CYNR
DATE - TIME
041900Z
WIND
350 TRUE @ 8 KNOTS
VISIBILITY
9SM
RUNWAY VISUAL RANGE
NOT REPORTED
WEATHER
CLOUDINESS
BKN030 OVC039
TEMP / DEWPOINT
12 ºC / 6 ºC
ALTIMETER
30.14 in. Hg
RECENT WEATHER
NOT REPORTED
WIND SHEAR
NOT REPORTED
REMARKS
RMK AO2 SLP214
SEA LEVEL PRESSURE: hPa

CYNR

METAR CYNR 041800Z AUTO 34008KT 9SM BKN041 BKN150 11/06 A3014 RMK AO2 SLP212
METAR
LOCATION
CYNR
DATE - TIME
041800Z
WIND
340 TRUE @ 8 KNOTS
VISIBILITY
9SM
RUNWAY VISUAL RANGE
NOT REPORTED
WEATHER
CLOUDINESS
BKN041 BKN150
TEMP / DEWPOINT
11 ºC / 6 ºC
ALTIMETER
30.14 in. Hg
RECENT WEATHER
NOT REPORTED
WIND SHEAR
NOT REPORTED
REMARKS
RMK AO2 SLP212
SEA LEVEL PRESSURE: hPa

Your time UTC time
 
 
Weather data provided by AXYS Technologies Inc., www.axystechnologies.com
 
Station History